AEZ2119 LIRF-LICB
Flight info
| Callsign | AEZ2119 |
|---|---|
| Flight time | 0h 56m |
| Altitude | 35000 |
| Route | RIFFI DCT BEROL DCT ROSAS DCT LIBRO |
| Aircraft | B738/M-SDE2E3FGHIRWXY/LB1 |
Departure
| Time | 2026-05-06 09:44 |
|---|---|
| Airport | Rome–Fiumicino Leonardo da Vinci International Airport (LIRF) |
Arrival
| Time | 2026-05-06 10:40 |
|---|---|
| Airport | Comiso Airport (LICB) |
| Time | Latitude | Longitude | Altitude | Speed | Heading |
|---|---|---|---|---|---|
| 2026-05-06 09:03 | 41.79840 | 12.26517 | 13 ft | 0 kts | 70° |
| 2026-05-06 09:38 | 41.79841 | 12.26518 | 13 ft | 1 kts | 70° |
| 2026-05-06 09:38 | 41.79851 | 12.26543 | 13 ft | 5 kts | 45° |
| 2026-05-06 09:39 | 41.79884 | 12.26551 | 13 ft | 6 kts | 354° |
| 2026-05-06 09:39 | 41.79945 | 12.26530 | 15 ft | 10 kts | 342° |
| 2026-05-06 09:39 | 41.80013 | 12.26499 | 13 ft | 10 kts | 341° |
| 2026-05-06 09:39 | 41.80086 | 12.26464 | 15 ft | 12 kts | 340° |
| 2026-05-06 09:40 | 41.80167 | 12.26424 | 13 ft | 12 kts | 340° |
| 2026-05-06 09:40 | 41.80250 | 12.26406 | 13 ft | 12 kts | 356° |
| 2026-05-06 09:40 | 41.80414 | 12.26387 | 14 ft | 13 kts | 38° |
| 2026-05-06 09:41 | 41.80454 | 12.26492 | 14 ft | 13 kts | 70° |
| 2026-05-06 09:41 | 41.80483 | 12.26602 | 14 ft | 12 kts | 71° |
| 2026-05-06 09:41 | 41.80512 | 12.26710 | 14 ft | 13 kts | 71° |
| 2026-05-06 09:41 | 41.80542 | 12.26827 | 13 ft | 14 kts | 69° |
| 2026-05-06 09:42 | 41.80578 | 12.26950 | 12 ft | 15 kts | 69° |
| 2026-05-06 09:42 | 41.80645 | 12.27044 | 13 ft | 15 kts | 14° |
| 2026-05-06 09:42 | 41.80743 | 12.27056 | 14 ft | 14 kts | 3° |
| 2026-05-06 09:42 | 41.80835 | 12.27027 | 14 ft | 13 kts | 340° |
| 2026-05-06 09:43 | 41.80921 | 12.26985 | 12 ft | 13 kts | 340° |
| 2026-05-06 09:43 | 41.80940 | 12.26878 | 12 ft | 16 kts | 255° |
| 2026-05-06 09:43 | 41.80827 | 12.26456 | 17 ft | 83 kts | 250° |
| 2026-05-06 09:43 | 41.80552 | 12.25454 | 16 ft | 144 kts | 249° |
| 2026-05-06 09:44 | 41.80164 | 12.24028 | 202 ft | 177 kts | 244° |
| 2026-05-06 09:44 | 41.79747 | 12.22484 | 829 ft | 180 kts | 244° |
| 2026-05-06 09:44 | 41.79242 | 12.21013 | 1665 ft | 168 kts | 224° |
| 2026-05-06 09:44 | 41.78344 | 12.19965 | 2102 ft | 183 kts | 216° |
| 2026-05-06 09:45 | 41.77353 | 12.18852 | 2693 ft | 187 kts | 217° |
| 2026-05-06 09:45 | 41.76345 | 12.17719 | 3243 ft | 191 kts | 218° |
| 2026-05-06 09:45 | 41.75210 | 12.16851 | 3786 ft | 193 kts | 191° |
| 2026-05-06 09:45 | 41.73795 | 12.16838 | 4019 ft | 214 kts | 180° |
| 2026-05-06 09:46 | 41.72241 | 12.16914 | 4280 ft | 236 kts | 181° |
| 2026-05-06 09:46 | 41.70539 | 12.16994 | 4769 ft | 250 kts | 181° |
| 2026-05-06 09:46 | 41.68780 | 12.17076 | 5445 ft | 256 kts | 181° |
| 2026-05-06 09:46 | 41.66969 | 12.17163 | 6125 ft | 262 kts | 181° |
| 2026-05-06 09:47 | 41.65128 | 12.17251 | 6905 ft | 267 kts | 182° |
| 2026-05-06 09:47 | 41.63264 | 12.17339 | 7728 ft | 270 kts | 182° |
| 2026-05-06 09:47 | 41.61373 | 12.17429 | 8494 ft | 274 kts | 182° |
| 2026-05-06 09:47 | 41.59456 | 12.17519 | 9293 ft | 277 kts | 183° |
| 2026-05-06 09:48 | 41.57512 | 12.17610 | 10077 ft | 282 kts | 183° |
| 2026-05-06 09:48 | 41.55498 | 12.17668 | 10494 ft | 301 kts | 187° |
| 2026-05-06 09:48 | 41.53355 | 12.17280 | 10676 ft | 322 kts | 194° |
| 2026-05-06 09:48 | 41.51080 | 12.16851 | 11137 ft | 339 kts | 183° |
| 2026-05-06 09:49 | 41.48753 | 12.17599 | 11834 ft | 354 kts | 157° |
| 2026-05-06 09:49 | 41.46748 | 12.19578 | 12696 ft | 364 kts | 139° |
| 2026-05-06 09:49 | 41.44961 | 12.22008 | 13516 ft | 370 kts | 137° |
| 2026-05-06 09:49 | 41.43184 | 12.24516 | 14226 ft | 375 kts | 136° |
| 2026-05-06 09:50 | 41.41388 | 12.27059 | 14985 ft | 378 kts | 137° |
| 2026-05-06 09:50 | 41.39575 | 12.29607 | 15781 ft | 380 kts | 137° |
| 2026-05-06 09:50 | 41.37742 | 12.32160 | 16548 ft | 382 kts | 137° |
| 2026-05-06 09:50 | 41.35890 | 12.34719 | 17310 ft | 386 kts | 137° |
| 2026-05-06 09:51 | 41.34017 | 12.37295 | 18058 ft | 389 kts | 138° |
| 2026-05-06 09:51 | 41.32124 | 12.39893 | 18722 ft | 393 kts | 138° |
| 2026-05-06 09:51 | 41.30209 | 12.42516 | 19269 ft | 398 kts | 138° |
| 2026-05-06 09:51 | 41.28268 | 12.45174 | 19826 ft | 403 kts | 138° |
| 2026-05-06 09:52 | 41.26304 | 12.47862 | 20432 ft | 407 kts | 138° |
| 2026-05-06 09:52 | 41.24324 | 12.50567 | 21025 ft | 410 kts | 139° |
| 2026-05-06 09:52 | 41.22209 | 12.53113 | 21555 ft | 409 kts | 152° |
| 2026-05-06 09:52 | 41.19663 | 12.54675 | 22127 ft | 402 kts | 165° |
| 2026-05-06 09:53 | 41.17020 | 12.55914 | 22754 ft | 404 kts | 166° |
| 2026-05-06 09:53 | 41.14349 | 12.57147 | 23293 ft | 408 kts | 166° |
| 2026-05-06 09:53 | 41.11653 | 12.58394 | 23789 ft | 412 kts | 166° |
| 2026-05-06 09:53 | 41.08935 | 12.59663 | 24258 ft | 415 kts | 166° |
| 2026-05-06 09:54 | 41.06206 | 12.60948 | 24696 ft | 418 kts | 166° |
| 2026-05-06 09:54 | 41.03452 | 12.62252 | 25128 ft | 422 kts | 166° |
| 2026-05-06 09:54 | 41.00682 | 12.63569 | 25595 ft | 424 kts | 166° |
| 2026-05-06 09:54 | 40.97898 | 12.64894 | 26062 ft | 426 kts | 166° |
| 2026-05-06 09:55 | 40.95098 | 12.66228 | 26497 ft | 429 kts | 166° |
| 2026-05-06 09:55 | 40.92324 | 12.67547 | 26916 ft | 431 kts | 166° |
| 2026-05-06 09:55 | 40.89493 | 12.68892 | 27323 ft | 434 kts | 166° |
| 2026-05-06 09:55 | 40.86641 | 12.70246 | 27739 ft | 436 kts | 166° |
| 2026-05-06 09:56 | 40.83778 | 12.71604 | 28123 ft | 439 kts | 166° |
| 2026-05-06 09:56 | 40.80899 | 12.72968 | 28519 ft | 441 kts | 166° |
| 2026-05-06 09:56 | 40.78003 | 12.74339 | 28927 ft | 443 kts | 166° |
| 2026-05-06 09:56 | 40.75091 | 12.75716 | 29287 ft | 446 kts | 166° |
| 2026-05-06 09:57 | 40.72167 | 12.77097 | 29646 ft | 448 kts | 166° |
| 2026-05-06 09:57 | 40.69218 | 12.78490 | 29866 ft | 453 kts | 165° |
| 2026-05-06 09:57 | 40.66242 | 12.79892 | 30206 ft | 455 kts | 165° |
| 2026-05-06 09:57 | 40.63268 | 12.81294 | 30641 ft | 453 kts | 165° |
| 2026-05-06 09:58 | 40.60312 | 12.82688 | 31089 ft | 451 kts | 165° |
| 2026-05-06 09:58 | 40.58361 | 12.83607 | 31383 ft | 449 kts | 165° |
| 2026-05-06 09:58 | 40.55419 | 12.84990 | 31817 ft | 448 kts | 165° |
| 2026-05-06 09:58 | 40.52485 | 12.86368 | 32203 ft | 447 kts | 165° |
| 2026-05-06 09:59 | 40.49557 | 12.87740 | 32595 ft | 447 kts | 165° |
| 2026-05-06 09:59 | 40.46633 | 12.89110 | 33000 ft | 446 kts | 165° |
| 2026-05-06 09:59 | 40.43717 | 12.90475 | 33404 ft | 445 kts | 165° |
| 2026-05-06 09:59 | 40.40805 | 12.91837 | 33804 ft | 444 kts | 165° |
| 2026-05-06 10:00 | 40.37900 | 12.93194 | 34144 ft | 443 kts | 165° |
| 2026-05-06 10:00 | 40.35001 | 12.94548 | 34495 ft | 441 kts | 165° |
| 2026-05-06 10:00 | 40.31145 | 12.96346 | 35001 ft | 439 kts | 165° |
| 2026-05-06 10:00 | 40.29234 | 12.97236 | 35027 ft | 442 kts | 165° |
| 2026-05-06 10:01 | 40.23420 | 12.99941 | 35027 ft | 443 kts | 165° |
| 2026-05-06 10:01 | 40.17649 | 13.02551 | 35037 ft | 435 kts | 167° |
| 2026-05-06 10:02 | 40.11855 | 13.04825 | 35037 ft | 435 kts | 168° |
| 2026-05-06 10:02 | 40.06037 | 13.07052 | 35043 ft | 436 kts | 167° |
| 2026-05-06 10:03 | 40.00214 | 13.09317 | 35041 ft | 437 kts | 167° |
| 2026-05-06 10:03 | 39.94377 | 13.11608 | 35036 ft | 438 kts | 167° |
| 2026-05-06 10:04 | 39.88534 | 13.13906 | 35023 ft | 439 kts | 168° |
| 2026-05-06 10:04 | 39.82692 | 13.16200 | 35031 ft | 438 kts | 168° |
| 2026-05-06 10:05 | 39.76898 | 13.18470 | 35032 ft | 437 kts | 168° |
| 2026-05-06 10:05 | 39.71074 | 13.20747 | 35020 ft | 436 kts | 168° |
| 2026-05-06 10:06 | 39.65267 | 13.23013 | 35032 ft | 435 kts | 168° |
| 2026-05-06 10:06 | 39.59468 | 13.25272 | 35033 ft | 435 kts | 168° |
| 2026-05-06 10:07 | 39.53677 | 13.27523 | 35033 ft | 434 kts | 168° |
| 2026-05-06 10:07 | 39.47885 | 13.29772 | 35022 ft | 434 kts | 168° |
| 2026-05-06 10:08 | 39.42096 | 13.32015 | 35027 ft | 434 kts | 168° |
| 2026-05-06 10:08 | 39.36299 | 13.34257 | 35032 ft | 435 kts | 168° |
| 2026-05-06 10:09 | 39.30501 | 13.36496 | 35026 ft | 435 kts | 168° |
| 2026-05-06 10:09 | 39.24693 | 13.38735 | 35008 ft | 436 kts | 168° |
| 2026-05-06 10:10 | 39.18877 | 13.40973 | 35029 ft | 436 kts | 168° |
| 2026-05-06 10:10 | 39.13052 | 13.43211 | 35034 ft | 438 kts | 168° |
| 2026-05-06 10:11 | 39.07208 | 13.45453 | 35037 ft | 439 kts | 168° |
| 2026-05-06 10:11 | 39.01353 | 13.47695 | 35015 ft | 440 kts | 168° |
| 2026-05-06 10:12 | 38.95478 | 13.49941 | 35016 ft | 440 kts | 167° |
| 2026-05-06 10:12 | 38.89604 | 13.52183 | 35029 ft | 441 kts | 167° |
| 2026-05-06 10:13 | 38.83800 | 13.54779 | 35020 ft | 447 kts | 156° |
| 2026-05-06 10:13 | 38.78432 | 13.58847 | 35027 ft | 449 kts | 152° |
| 2026-05-06 10:14 | 38.75760 | 13.60946 | 34760 ft | 453 kts | 152° |
| 2026-05-06 10:14 | 38.73100 | 13.63028 | 34237 ft | 453 kts | 152° |
| 2026-05-06 10:14 | 38.70408 | 13.65121 | 33548 ft | 453 kts | 152° |
| 2026-05-06 10:14 | 38.67724 | 13.67192 | 33079 ft | 448 kts | 152° |
| 2026-05-06 10:15 | 38.65028 | 13.69261 | 32575 ft | 443 kts | 153° |
| 2026-05-06 10:15 | 38.62430 | 13.71247 | 32120 ft | 439 kts | 153° |
| 2026-05-06 10:15 | 38.59824 | 13.73234 | 31663 ft | 434 kts | 153° |
| 2026-05-06 10:15 | 38.57240 | 13.75201 | 31217 ft | 430 kts | 153° |
| 2026-05-06 10:16 | 38.54679 | 13.77148 | 30771 ft | 426 kts | 153° |
| 2026-05-06 10:16 | 38.52142 | 13.79075 | 30333 ft | 423 kts | 153° |
| 2026-05-06 10:16 | 38.49625 | 13.80986 | 29867 ft | 419 kts | 153° |
| 2026-05-06 10:16 | 38.47133 | 13.82876 | 29381 ft | 415 kts | 153° |
| 2026-05-06 10:17 | 38.44667 | 13.84746 | 28930 ft | 410 kts | 153° |
| 2026-05-06 10:17 | 38.42228 | 13.86594 | 28476 ft | 405 kts | 153° |
| 2026-05-06 10:17 | 38.39818 | 13.88418 | 28025 ft | 401 kts | 153° |
| 2026-05-06 10:17 | 38.37425 | 13.90228 | 27586 ft | 398 kts | 153° |
| 2026-05-06 10:18 | 38.35057 | 13.92018 | 27142 ft | 394 kts | 153° |
| 2026-05-06 10:18 | 38.32708 | 13.93791 | 26707 ft | 391 kts | 153° |
| 2026-05-06 10:18 | 38.30374 | 13.95552 | 26276 ft | 388 kts | 153° |
| 2026-05-06 10:18 | 38.28059 | 13.97298 | 25844 ft | 386 kts | 153° |
| 2026-05-06 10:19 | 38.25754 | 13.99034 | 25423 ft | 383 kts | 153° |
| 2026-05-06 10:19 | 38.23466 | 14.00757 | 25009 ft | 381 kts | 153° |
| 2026-05-06 10:19 | 38.21189 | 14.02470 | 24587 ft | 379 kts | 153° |
| 2026-05-06 10:19 | 38.18927 | 14.04170 | 24172 ft | 377 kts | 153° |
| 2026-05-06 10:20 | 38.16668 | 14.05867 | 23740 ft | 377 kts | 153° |
| 2026-05-06 10:20 | 38.14416 | 14.07557 | 23282 ft | 375 kts | 153° |
| 2026-05-06 10:20 | 38.12179 | 14.09236 | 22810 ft | 373 kts | 153° |
| 2026-05-06 10:20 | 38.09954 | 14.10904 | 22373 ft | 370 kts | 153° |
| 2026-05-06 10:21 | 38.07744 | 14.12561 | 21949 ft | 367 kts | 153° |
| 2026-05-06 10:21 | 38.05552 | 14.14202 | 21541 ft | 365 kts | 153° |
| 2026-05-06 10:21 | 38.03375 | 14.15831 | 21130 ft | 362 kts | 153° |
| 2026-05-06 10:21 | 38.01210 | 14.17449 | 20701 ft | 360 kts | 153° |
| 2026-05-06 10:22 | 37.99056 | 14.19059 | 20319 ft | 358 kts | 153° |
| 2026-05-06 10:22 | 37.96914 | 14.20657 | 19920 ft | 357 kts | 154° |
| 2026-05-06 10:22 | 37.94778 | 14.22250 | 19493 ft | 356 kts | 153° |
| 2026-05-06 10:22 | 37.92655 | 14.23833 | 19097 ft | 353 kts | 153° |
| 2026-05-06 10:23 | 37.90543 | 14.25407 | 18717 ft | 351 kts | 153° |
| 2026-05-06 10:23 | 37.88443 | 14.26971 | 18314 ft | 350 kts | 153° |
| 2026-05-06 10:23 | 37.86348 | 14.28530 | 17877 ft | 349 kts | 153° |
| 2026-05-06 10:23 | 37.84253 | 14.30087 | 17437 ft | 348 kts | 153° |
| 2026-05-06 10:24 | 37.82169 | 14.31636 | 17024 ft | 346 kts | 154° |
| 2026-05-06 10:24 | 37.80095 | 14.33176 | 16642 ft | 345 kts | 154° |
| 2026-05-06 10:24 | 37.78024 | 14.34713 | 16226 ft | 345 kts | 154° |
| 2026-05-06 10:24 | 37.75960 | 14.36243 | 15829 ft | 343 kts | 153° |
| 2026-05-06 10:25 | 37.73905 | 14.37767 | 15443 ft | 342 kts | 153° |
| 2026-05-06 10:25 | 37.71856 | 14.39285 | 15043 ft | 341 kts | 153° |
| 2026-05-06 10:25 | 37.69811 | 14.40799 | 14653 ft | 340 kts | 153° |
| 2026-05-06 10:25 | 37.67769 | 14.42310 | 14265 ft | 339 kts | 153° |
| 2026-05-06 10:26 | 37.65733 | 14.43815 | 13855 ft | 339 kts | 154° |
| 2026-05-06 10:26 | 37.63691 | 14.45302 | 13445 ft | 337 kts | 157° |
| 2026-05-06 10:26 | 37.61511 | 14.46282 | 13005 ft | 330 kts | 172° |
| 2026-05-06 10:26 | 37.59278 | 14.46540 | 12532 ft | 325 kts | 183° |
| 2026-05-06 10:27 | 37.57026 | 14.46518 | 12138 ft | 322 kts | 184° |
| 2026-05-06 10:27 | 37.54794 | 14.46450 | 11752 ft | 320 kts | 185° |
| 2026-05-06 10:27 | 37.52580 | 14.46375 | 11374 ft | 318 kts | 184° |
| 2026-05-06 10:27 | 37.50375 | 14.46306 | 10991 ft | 316 kts | 184° |
| 2026-05-06 10:28 | 37.48187 | 14.46245 | 10619 ft | 313 kts | 183° |
| 2026-05-06 10:28 | 37.46034 | 14.46191 | 10435 ft | 304 kts | 183° |
| 2026-05-06 10:28 | 37.43951 | 14.46143 | 10301 ft | 295 kts | 183° |
| 2026-05-06 10:28 | 37.41934 | 14.46099 | 10165 ft | 286 kts | 183° |
| 2026-05-06 10:29 | 37.39980 | 14.46059 | 10043 ft | 277 kts | 183° |
| 2026-05-06 10:29 | 37.38053 | 14.46019 | 9746 ft | 276 kts | 183° |
| 2026-05-06 10:29 | 37.36140 | 14.45978 | 9449 ft | 274 kts | 183° |
| 2026-05-06 10:29 | 37.34236 | 14.45939 | 9168 ft | 272 kts | 182° |
| 2026-05-06 10:30 | 37.32349 | 14.45900 | 8881 ft | 271 kts | 182° |
| 2026-05-06 10:30 | 37.30472 | 14.45860 | 8596 ft | 269 kts | 182° |
| 2026-05-06 10:30 | 37.28603 | 14.45822 | 8312 ft | 268 kts | 182° |
| 2026-05-06 10:30 | 37.26743 | 14.45784 | 8016 ft | 266 kts | 182° |
| 2026-05-06 10:31 | 37.24898 | 14.45748 | 7755 ft | 264 kts | 182° |
| 2026-05-06 10:31 | 37.23063 | 14.45710 | 7477 ft | 263 kts | 182° |
| 2026-05-06 10:31 | 37.21237 | 14.45673 | 7204 ft | 262 kts | 182° |
| 2026-05-06 10:31 | 37.19419 | 14.45635 | 6922 ft | 261 kts | 181° |
| 2026-05-06 10:32 | 37.17601 | 14.45598 | 6629 ft | 261 kts | 181° |
| 2026-05-06 10:32 | 37.15784 | 14.45560 | 6350 ft | 261 kts | 181° |
| 2026-05-06 10:32 | 37.13972 | 14.45525 | 6048 ft | 261 kts | 181° |
| 2026-05-06 10:32 | 37.12164 | 14.45488 | 5773 ft | 259 kts | 181° |
| 2026-05-06 10:33 | 37.10363 | 14.45450 | 5579 ft | 256 kts | 181° |
| 2026-05-06 10:33 | 37.08618 | 14.45417 | 5490 ft | 246 kts | 181° |
| 2026-05-06 10:33 | 37.06942 | 14.45383 | 5425 ft | 235 kts | 181° |
| 2026-05-06 10:33 | 37.05348 | 14.45354 | 5331 ft | 222 kts | 181° |
| 2026-05-06 10:34 | 37.03848 | 14.45324 | 5249 ft | 209 kts | 181° |
| 2026-05-06 10:34 | 37.02437 | 14.45295 | 5149 ft | 197 kts | 180° |
| 2026-05-06 10:34 | 37.01137 | 14.45278 | 5051 ft | 184 kts | 180° |
| 2026-05-06 10:34 | 36.99847 | 14.45250 | 4697 ft | 187 kts | 181° |
| 2026-05-06 10:35 | 36.98535 | 14.45220 | 4483 ft | 182 kts | 180° |
| 2026-05-06 10:35 | 36.97286 | 14.45202 | 4228 ft | 179 kts | 180° |
| 2026-05-06 10:35 | 36.96052 | 14.45174 | 3896 ft | 181 kts | 180° |
| 2026-05-06 10:35 | 36.94810 | 14.45145 | 3665 ft | 177 kts | 180° |
| 2026-05-06 10:36 | 36.93564 | 14.45121 | 3425 ft | 174 kts | 180° |
| 2026-05-06 10:36 | 36.92384 | 14.45095 | 3299 ft | 166 kts | 179° |
| 2026-05-06 10:36 | 36.91293 | 14.45415 | 3004 ft | 162 kts | 138° |
| 2026-05-06 10:36 | 36.90876 | 14.46659 | 3028 ft | 170 kts | 87° |
| 2026-05-06 10:37 | 36.91316 | 14.48063 | 2978 ft | 180 kts | 62° |
| 2026-05-06 10:37 | 36.92006 | 14.49388 | 2770 ft | 181 kts | 60° |
| 2026-05-06 10:37 | 36.92746 | 14.50657 | 2532 ft | 180 kts | 57° |
| 2026-05-06 10:37 | 36.93544 | 14.51833 | 2302 ft | 174 kts | 54° |
| 2026-05-06 10:38 | 36.94308 | 14.52962 | 2104 ft | 165 kts | 55° |
| 2026-05-06 10:38 | 36.95029 | 14.54044 | 1856 ft | 157 kts | 53° |
| 2026-05-06 10:38 | 36.95704 | 14.55058 | 1661 ft | 147 kts | 56° |
| 2026-05-06 10:38 | 36.96352 | 14.56040 | 1448 ft | 146 kts | 57° |
| 2026-05-06 10:39 | 36.97003 | 14.57008 | 1272 ft | 143 kts | 54° |
| 2026-05-06 10:39 | 36.97638 | 14.57973 | 1130 ft | 145 kts | 56° |
| 2026-05-06 10:39 | 36.98281 | 14.58929 | 958 ft | 144 kts | 53° |
| 2026-05-06 10:39 | 36.98921 | 14.59889 | 748 ft | 143 kts | 54° |
| 2026-05-06 10:40 | 36.99504 | 14.60778 | 720 ft | 115 kts | 51° |
| 2026-05-06 10:40 | 36.99902 | 14.61365 | 723 ft | 52 kts | 48° |
| 2026-05-06 10:40 | 37.00107 | 14.61673 | 722 ft | 15 kts | 50° |
| 2026-05-06 10:40 | 37.00177 | 14.61778 | 719 ft | 17 kts | 51° |
| 2026-05-06 10:41 | 37.00275 | 14.61856 | 718 ft | 18 kts | 343° |
| 2026-05-06 10:41 | 37.00355 | 14.61749 | 719 ft | 17 kts | 270° |
| 2026-05-06 10:41 | 37.00292 | 14.61626 | 720 ft | 17 kts | 230° |
| 2026-05-06 10:41 | 37.00217 | 14.61517 | 720 ft | 16 kts | 229° |
| 2026-05-06 10:42 | 37.00147 | 14.61411 | 722 ft | 16 kts | 230° |
| 2026-05-06 10:42 | 37.00079 | 14.61309 | 720 ft | 15 kts | 230° |
| 2026-05-06 10:42 | 37.00014 | 14.61212 | 723 ft | 14 kts | 230° |
| 2026-05-06 10:42 | 36.99951 | 14.61119 | 720 ft | 14 kts | 230° |
| 2026-05-06 10:43 | 36.99888 | 14.61026 | 720 ft | 15 kts | 229° |
| 2026-05-06 10:43 | 36.99820 | 14.60923 | 720 ft | 15 kts | 230° |
| 2026-05-06 10:43 | 36.99754 | 14.60824 | 720 ft | 15 kts | 230° |
| 2026-05-06 10:44 | 36.99718 | 14.60707 | 720 ft | 6 kts | 329° |
| 2026-05-06 10:44 | 36.99738 | 14.60700 | 722 ft | 0 kts | 347° |
| 2026-05-06 10:44 | 36.99739 | 14.60700 | 722 ft | 0 kts | 345° |
| 2026-05-06 10:44 | 36.99741 | 14.60699 | 722 ft | 0 kts | 346° |
| 2026-05-06 10:45 | 36.99741 | 14.60698 | 722 ft | 0 kts | 351° |